sensor_id;sensor_type;location;lat;lon;timestamp;P1;durP1;ratioP1;P2;durP2;ratioP2
2570;SDS011;1295;51.130;6.732;2022-12-05T00:01:42;155.80;;;140.57;;
2570;SDS011;1295;51.130;6.732;2022-12-05T00:04:09;129.73;;;103.97;;
2570;SDS011;1295;51.130;6.732;2022-12-05T00:06:35;159.27;;;144.70;;
2570;SDS011;1295;51.130;6.732;2022-12-05T00:09:00;136.83;;;113.40;;
2570;SDS011;1295;51.130;6.732;2022-12-05T00:11:27;163.20;;;148.13;;
2570;SDS011;1295;51.130;6.732;2022-12-05T00:13:52;141.93;;;128.43;;
2570;SDS011;1295;51.130;6.732;2022-12-05T00:16:18;131.07;;;116.90;;
2570;SDS011;1295;51.130;6.732;2022-12-05T00:18:42;168.37;;;153.37;;
2570;SDS011;1295;51.130;6.732;2022-12-05T00:21:12;147.80;;;134.13;;
2570;SDS011;1295;51.130;6.732;2022-12-05T00:23:36;124.60;;;109.10;;
2570;SDS011;1295;51.130;6.732;2022-12-05T00:26:03;150.93;;;135.93;;
2570;SDS011;1295;51.130;6.732;2022-12-05T00:28:28;113.10;;;92.03;;
2570;SDS011;1295;51.130;6.732;2022-12-05T00:30:53;120.93;;;103.63;;
2570;SDS011;1295;51.130;6.732;2022-12-05T00:33:19;126.80;;;113.40;;
2570;SDS011;1295;51.130;6.732;2022-12-05T00:35:45;112.33;;;89.93;;
2570;SDS011;1295;51.130;6.732;2022-12-05T00:38:11;113.80;;;71.07;;
2570;SDS011;1295;51.130;6.732;2022-12-05T00:40:37;114.70;;;92.27;;
2570;SDS011;1295;51.130;6.732;2022-12-05T00:43:02;110.90;;;73.03;;
2570;SDS011;1295;51.130;6.732;2022-12-05T00:45:28;127.00;;;100.10;;
2570;SDS011;1295;51.130;6.732;2022-12-05T00:47:53;108.50;;;71.43;;
2570;SDS011;1295;51.130;6.732;2022-12-05T00:50:19;111.70;;;76.53;;
2570;SDS011;1295;51.130;6.732;2022-12-05T00:52:45;120.17;;;99.13;;
2570;SDS011;1295;51.130;6.732;2022-12-05T00:55:10;138.67;;;124.17;;
2570;SDS011;1295;51.130;6.732;2022-12-05T00:57:36;124.60;;;89.93;;
2570;SDS011;1295;51.130;6.732;2022-12-05T01:00:04;125.57;;;104.83;;
2570;SDS011;1295;51.130;6.732;2022-12-05T01:02:30;135.33;;;120.80;;
2570;SDS011;1295;51.130;6.732;2022-12-05T01:04:55;116.57;;;97.67;;
2570;SDS011;1295;51.130;6.732;2022-12-05T01:07:21;117.83;;;76.80;;
2570;SDS011;1295;51.130;6.732;2022-12-05T01:09:47;103.00;;;58.97;;
2570;SDS011;1295;51.130;6.732;2022-12-05T01:12:14;117.33;;;73.47;;
2570;SDS011;1295;51.130;6.732;2022-12-05T01:14:40;128.97;;;78.27;;
2570;SDS011;1295;51.130;6.732;2022-12-05T01:17:06;144.10;;;129.13;;
2570;SDS011;1295;51.130;6.732;2022-12-05T01:19:32;113.97;;;76.57;;
2570;SDS011;1295;51.130;6.732;2022-12-05T01:21:58;105.23;;;66.20;;
2570;SDS011;1295;51.130;6.732;2022-12-05T01:24:24;126.93;;;100.20;;
2570;SDS011;1295;51.130;6.732;2022-12-05T01:26:52;108.73;;;79.93;;
2570;SDS011;1295;51.130;6.732;2022-12-05T01:29:18;110.50;;;59.13;;
2570;SDS011;1295;51.130;6.732;2022-12-05T01:31:44;130.70;;;107.13;;
2570;SDS011;1295;51.130;6.732;2022-12-05T01:34:11;99.90;;;51.70;;
2570;SDS011;1295;51.130;6.732;2022-12-05T01:36:37;115.50;;;75.30;;
2570;SDS011;1295;51.130;6.732;2022-12-05T01:39:02;112.93;;;63.33;;
2570;SDS011;1295;51.130;6.732;2022-12-05T01:41:29;105.70;;;51.77;;
2570;SDS011;1295;51.130;6.732;2022-12-05T01:43:56;119.17;;;73.47;;
2570;SDS011;1295;51.130;6.732;2022-12-05T01:46:22;122.13;;;95.10;;
2570;SDS011;1295;51.130;6.732;2022-12-05T01:48:47;114.83;;;56.73;;
2570;SDS011;1295;51.130;6.732;2022-12-05T01:51:13;117.53;;;63.40;;
2570;SDS011;1295;51.130;6.732;2022-12-05T01:53:39;119.50;;;69.77;;
2570;SDS011;1295;51.130;6.732;2022-12-05T01:56:06;112.20;;;56.00;;
2570;SDS011;1295;51.130;6.732;2022-12-05T01:58:33;104.07;;;40.30;;
2570;SDS011;1295;51.130;6.732;2022-12-05T02:00:57;93.80;;;33.37;;
2570;SDS011;1295;51.130;6.732;2022-12-05T02:03:23;108.30;;;40.70;;
2570;SDS011;1295;51.130;6.732;2022-12-05T02:05:50;102.10;;;37.40;;
2570;SDS011;1295;51.130;6.732;2022-12-05T02:08:14;99.90;;;32.43;;
2570;SDS011;1295;51.130;6.732;2022-12-05T02:10:42;96.57;;;39.93;;
2570;SDS011;1295;51.130;6.732;2022-12-05T02:13:13;97.27;;;39.60;;
2570;SDS011;1295;51.130;6.732;2022-12-05T02:15:42;104.00;;;36.40;;
2570;SDS011;1295;51.130;6.732;2022-12-05T02:18:09;95.67;;;33.57;;
2570;SDS011;1295;51.130;6.732;2022-12-05T02:20:51;96.23;;;37.93;;
2570;SDS011;1295;51.130;6.732;2022-12-05T02:26:14;96.17;;;31.57;;
2570;SDS011;1295;51.130;6.732;2022-12-05T02:31:26;92.60;;;23.93;;
2570;SDS011;1295;51.130;6.732;2022-12-05T02:33:52;96.43;;;28.30;;
2570;SDS011;1295;51.130;6.732;2022-12-05T02:36:24;102.77;;;39.57;;
2570;SDS011;1295;51.130;6.732;2022-12-05T02:38:56;105.23;;;32.40;;
2570;SDS011;1295;51.130;6.732;2022-12-05T02:41:27;100.90;;;34.03;;
2570;SDS011;1295;51.130;6.732;2022-12-05T02:44:00;98.23;;;31.80;;
2570;SDS011;1295;51.130;6.732;2022-12-05T02:46:25;103.10;;;36.77;;
2570;SDS011;1295;51.130;6.732;2022-12-05T02:48:52;98.10;;;35.97;;
2570;SDS011;1295;51.130;6.732;2022-12-05T02:51:18;103.00;;;35.00;;
2570;SDS011;1295;51.130;6.732;2022-12-05T02:53:43;95.10;;;28.97;;
2570;SDS011;1295;51.130;6.732;2022-12-05T02:56:09;100.67;;;40.13;;
2570;SDS011;1295;51.130;6.732;2022-12-05T02:58:37;95.47;;;28.50;;
2570;SDS011;1295;51.130;6.732;2022-12-05T03:01:01;96.17;;;25.37;;
2570;SDS011;1295;51.130;6.732;2022-12-05T03:03:27;93.43;;;24.70;;
2570;SDS011;1295;51.130;6.732;2022-12-05T03:05:56;93.60;;;27.33;;
2570;SDS011;1295;51.130;6.732;2022-12-05T03:08:28;90.97;;;24.77;;
2570;SDS011;1295;51.130;6.732;2022-12-05T03:10:51;97.00;;;27.40;;
2570;SDS011;1295;51.130;6.732;2022-12-05T03:13:20;91.83;;;25.63;;
2570;SDS011;1295;51.130;6.732;2022-12-05T03:15:45;104.77;;;30.37;;
2570;SDS011;1295;51.130;6.732;2022-12-05T03:18:14;101.00;;;28.73;;
2570;SDS011;1295;51.130;6.732;2022-12-05T03:20:42;89.37;;;26.60;;
2570;SDS011;1295;51.130;6.732;2022-12-05T03:23:07;95.43;;;31.57;;
2570;SDS011;1295;51.130;6.732;2022-12-05T03:25:35;102.53;;;36.83;;
2570;SDS011;1295;51.130;6.732;2022-12-05T03:28:04;110.70;;;47.83;;
2570;SDS011;1295;51.130;6.732;2022-12-05T03:30:27;115.17;;;75.33;;
2570;SDS011;1295;51.130;6.732;2022-12-05T03:33:02;106.80;;;58.50;;
2570;SDS011;1295;51.130;6.732;2022-12-05T03:35:35;106.73;;;48.77;;
2570;SDS011;1295;51.130;6.732;2022-12-05T03:38:06;103.00;;;45.17;;
2570;SDS011;1295;51.130;6.732;2022-12-05T03:40:46;119.87;;;75.13;;
2570;SDS011;1295;51.130;6.732;2022-12-05T03:43:18;99.93;;;46.33;;
2570;SDS011;1295;51.130;6.732;2022-12-05T03:46:02;97.77;;;48.00;;
2570;SDS011;1295;51.130;6.732;2022-12-05T03:48:31;102.57;;;58.23;;
2570;SDS011;1295;51.130;6.732;2022-12-05T03:50:56;104.67;;;51.80;;
2570;SDS011;1295;51.130;6.732;2022-12-05T03:53:23;106.83;;;36.43;;
2570;SDS011;1295;51.130;6.732;2022-12-05T03:55:49;97.90;;;37.70;;
2570;SDS011;1295;51.130;6.732;2022-12-05T03:58:14;116.10;;;52.37;;
2570;SDS011;1295;51.130;6.732;2022-12-05T04:00:39;106.47;;;51.73;;
2570;SDS011;1295;51.130;6.732;2022-12-05T04:03:07;99.20;;;38.40;;
2570;SDS011;1295;51.130;6.732;2022-12-05T04:05:36;94.53;;;27.97;;
2570;SDS011;1295;51.130;6.732;2022-12-05T04:08:11;88.57;;;27.67;;
2570;SDS011;1295;51.130;6.732;2022-12-05T04:10:36;103.17;;;38.40;;
2570;SDS011;1295;51.130;6.732;2022-12-05T04:13:01;135.20;;;107.70;;
2570;SDS011;1295;51.130;6.732;2022-12-05T04:15:28;104.60;;;34.93;;
2570;SDS011;1295;51.130;6.732;2022-12-05T04:17:56;99.83;;;36.70;;
2570;SDS011;1295;51.130;6.732;2022-12-05T04:20:21;98.47;;;33.70;;
2570;SDS011;1295;51.130;6.732;2022-12-05T04:22:52;101.03;;;41.53;;
2570;SDS011;1295;51.130;6.732;2022-12-05T04:25:17;102.83;;;42.43;;
2570;SDS011;1295;51.130;6.732;2022-12-05T04:28:11;100.73;;;42.07;;
2570;SDS011;1295;51.130;6.732;2022-12-05T04:30:39;111.17;;;52.90;;
2570;SDS011;1295;51.130;6.732;2022-12-05T04:33:07;101.07;;;46.17;;
2570;SDS011;1295;51.130;6.732;2022-12-05T04:35:33;130.83;;;102.33;;
2570;SDS011;1295;51.130;6.732;2022-12-05T04:37:59;358.77;;;335.63;;
2570;SDS011;1295;51.130;6.732;2022-12-05T04:40:28;279.57;;;260.23;;
2570;SDS011;1295;51.130;6.732;2022-12-05T04:42:52;172.13;;;156.00;;
2570;SDS011;1295;51.130;6.732;2022-12-05T04:45:18;117.90;;;90.47;;
2570;SDS011;1295;51.130;6.732;2022-12-05T04:47:44;129.27;;;105.00;;
2570;SDS011;1295;51.130;6.732;2022-12-05T04:50:09;156.43;;;141.43;;
2570;SDS011;1295;51.130;6.732;2022-12-05T04:52:35;128.10;;;111.77;;
2570;SDS011;1295;51.130;6.732;2022-12-05T04:55:04;168.30;;;152.33;;
2570;SDS011;1295;51.130;6.732;2022-12-05T05:00:33;147.70;;;133.80;;
2570;SDS011;1295;51.130;6.732;2022-12-05T05:03:03;213.13;;;196.23;;
2570;SDS011;1295;51.130;6.732;2022-12-05T05:05:25;189.70;;;174.20;;
2570;SDS011;1295;51.130;6.732;2022-12-05T05:07:51;174.93;;;160.00;;
2570;SDS011;1295;51.130;6.732;2022-12-05T05:10:19;227.77;;;210.30;;
2570;SDS011;1295;51.130;6.732;2022-12-05T05:12:43;218.60;;;201.93;;
2570;SDS011;1295;51.130;6.732;2022-12-05T05:15:09;153.00;;;137.87;;
2570;SDS011;1295;51.130;6.732;2022-12-05T05:17:35;147.43;;;132.70;;
2570;SDS011;1295;51.130;6.732;2022-12-05T05:20:01;173.17;;;158.27;;
2570;SDS011;1295;51.130;6.732;2022-12-05T05:22:33;204.07;;;187.70;;
2570;SDS011;1295;51.130;6.732;2022-12-05T05:24:59;129.83;;;116.63;;
2570;SDS011;1295;51.130;6.732;2022-12-05T05:27:26;94.30;;;41.67;;
2570;SDS011;1295;51.130;6.732;2022-12-05T05:29:51;127.43;;;97.93;;
2570;SDS011;1295;51.130;6.732;2022-12-05T05:32:17;122.43;;;90.90;;
2570;SDS011;1295;51.130;6.732;2022-12-05T05:34:43;113.43;;;68.73;;
2570;SDS011;1295;51.130;6.732;2022-12-05T05:37:08;104.43;;;38.43;;
2570;SDS011;1295;51.130;6.732;2022-12-05T05:39:34;122.17;;;102.30;;
2570;SDS011;1295;51.130;6.732;2022-12-05T05:41:59;184.07;;;168.20;;
2570;SDS011;1295;51.130;6.732;2022-12-05T05:44:25;188.90;;;172.57;;
2570;SDS011;1295;51.130;6.732;2022-12-05T05:46:50;108.80;;;68.80;;
2570;SDS011;1295;51.130;6.732;2022-12-05T05:49:16;97.93;;;40.50;;
2570;SDS011;1295;51.130;6.732;2022-12-05T05:51:57;93.47;;;33.67;;
2570;SDS011;1295;51.130;6.732;2022-12-05T05:54:22;98.67;;;40.80;;
2570;SDS011;1295;51.130;6.732;2022-12-05T05:56:49;96.77;;;38.97;;
2570;SDS011;1295;51.130;6.732;2022-12-05T05:59:15;100.63;;;34.83;;
2570;SDS011;1295;51.130;6.732;2022-12-05T06:01:41;94.90;;;34.60;;
2570;SDS011;1295;51.130;6.732;2022-12-05T06:04:07;100.10;;;36.83;;
2570;SDS011;1295;51.130;6.732;2022-12-05T06:06:33;97.30;;;33.33;;
2570;SDS011;1295;51.130;6.732;2022-12-05T06:08:58;103.87;;;38.53;;
2570;SDS011;1295;51.130;6.732;2022-12-05T06:11:25;94.77;;;32.10;;
2570;SDS011;1295;51.130;6.732;2022-12-05T06:13:49;105.40;;;42.53;;
2570;SDS011;1295;51.130;6.732;2022-12-05T06:16:17;107.67;;;47.70;;
2570;SDS011;1295;51.130;6.732;2022-12-05T06:18:41;116.37;;;77.40;;
2570;SDS011;1295;51.130;6.732;2022-12-05T06:21:07;111.13;;;67.30;;
2570;SDS011;1295;51.130;6.732;2022-12-05T06:23:34;164.50;;;149.33;;
2570;SDS011;1295;51.130;6.732;2022-12-05T06:25:59;220.73;;;203.07;;
2570;SDS011;1295;51.130;6.732;2022-12-05T06:28:26;136.53;;;119.40;;
2570;SDS011;1295;51.130;6.732;2022-12-05T06:30:52;164.10;;;148.93;;
2570;SDS011;1295;51.130;6.732;2022-12-05T06:33:18;155.40;;;140.27;;
2570;SDS011;1295;51.130;6.732;2022-12-05T06:35:45;185.77;;;169.77;;
2570;SDS011;1295;51.130;6.732;2022-12-05T06:38:10;120.43;;;99.13;;
2570;SDS011;1295;51.130;6.732;2022-12-05T06:40:40;116.93;;;90.83;;
2570;SDS011;1295;51.130;6.732;2022-12-05T06:43:06;110.30;;;85.90;;
2570;SDS011;1295;51.130;6.732;2022-12-05T06:45:31;117.57;;;96.43;;
2570;SDS011;1295;51.130;6.732;2022-12-05T06:47:57;172.13;;;156.43;;
2570;SDS011;1295;51.130;6.732;2022-12-05T06:50:23;153.23;;;138.93;;
2570;SDS011;1295;51.130;6.732;2022-12-05T06:52:49;192.63;;;176.80;;
2570;SDS011;1295;51.130;6.732;2022-12-05T06:55:14;194.07;;;177.80;;
2570;SDS011;1295;51.130;6.732;2022-12-05T06:57:43;183.40;;;167.10;;
2570;SDS011;1295;51.130;6.732;2022-12-05T07:00:08;230.90;;;213.53;;
2570;SDS011;1295;51.130;6.732;2022-12-05T07:02:41;222.00;;;204.87;;
2570;SDS011;1295;51.130;6.732;2022-12-05T07:05:07;235.47;;;217.87;;
2570;SDS011;1295;51.130;6.732;2022-12-05T07:07:33;220.37;;;203.27;;
2570;SDS011;1295;51.130;6.732;2022-12-05T07:09:58;159.43;;;143.80;;
2570;SDS011;1295;51.130;6.732;2022-12-05T07:12:24;117.07;;;87.40;;
2570;SDS011;1295;51.130;6.732;2022-12-05T07:14:50;110.47;;;76.27;;
2570;SDS011;1295;51.130;6.732;2022-12-05T07:17:17;111.23;;;70.67;;
2570;SDS011;1295;51.130;6.732;2022-12-05T07:19:42;124.83;;;95.93;;
2570;SDS011;1295;51.130;6.732;2022-12-05T07:22:07;163.70;;;149.00;;
2570;SDS011;1295;51.130;6.732;2022-12-05T07:24:33;163.93;;;148.40;;
2570;SDS011;1295;51.130;6.732;2022-12-05T07:26:59;133.57;;;109.67;;
2570;SDS011;1295;51.130;6.732;2022-12-05T07:29:24;121.43;;;98.17;;
2570;SDS011;1295;51.130;6.732;2022-12-05T07:31:50;122.60;;;102.00;;
2570;SDS011;1295;51.130;6.732;2022-12-05T07:34:15;111.77;;;89.07;;
2570;SDS011;1295;51.130;6.732;2022-12-05T07:36:41;123.80;;;107.90;;
2570;SDS011;1295;51.130;6.732;2022-12-05T07:39:07;124.40;;;111.27;;
2570;SDS011;1295;51.130;6.732;2022-12-05T07:41:32;104.90;;;69.70;;
2570;SDS011;1295;51.130;6.732;2022-12-05T07:43:59;102.83;;;51.50;;
2570;SDS011;1295;51.130;6.732;2022-12-05T07:46:25;118.77;;;82.97;;
2570;SDS011;1295;51.130;6.732;2022-12-05T07:48:50;123.30;;;100.93;;
2570;SDS011;1295;51.130;6.732;2022-12-05T07:51:16;122.90;;;74.63;;
2570;SDS011;1295;51.130;6.732;2022-12-05T07:53:41;118.80;;;81.80;;
2570;SDS011;1295;51.130;6.732;2022-12-05T07:56:07;116.90;;;76.70;;
2570;SDS011;1295;51.130;6.732;2022-12-05T07:58:33;110.87;;;66.87;;
2570;SDS011;1295;51.130;6.732;2022-12-05T08:01:09;127.23;;;98.63;;
2570;SDS011;1295;51.130;6.732;2022-12-05T08:03:34;131.50;;;79.60;;
2570;SDS011;1295;51.130;6.732;2022-12-05T08:06:01;120.97;;;54.07;;
2570;SDS011;1295;51.130;6.732;2022-12-05T08:08:25;106.13;;;47.87;;
2570;SDS011;1295;51.130;6.732;2022-12-05T08:10:51;113.13;;;64.60;;
2570;SDS011;1295;51.130;6.732;2022-12-05T08:13:17;117.13;;;71.63;;
2570;SDS011;1295;51.130;6.732;2022-12-05T08:16:01;107.83;;;56.83;;
2570;SDS011;1295;51.130;6.732;2022-12-05T08:18:26;103.43;;;48.70;;
2570;SDS011;1295;51.130;6.732;2022-12-05T08:20:51;105.37;;;50.97;;
2570;SDS011;1295;51.130;6.732;2022-12-05T08:23:17;116.03;;;88.97;;
2570;SDS011;1295;51.130;6.732;2022-12-05T08:25:43;103.47;;;53.97;;
2570;SDS011;1295;51.130;6.732;2022-12-05T08:28:08;98.23;;;40.10;;
2570;SDS011;1295;51.130;6.732;2022-12-05T08:30:34;106.80;;;52.70;;
2570;SDS011;1295;51.130;6.732;2022-12-05T08:33:00;104.47;;;51.60;;
2570;SDS011;1295;51.130;6.732;2022-12-05T08:35:26;117.73;;;81.23;;
2570;SDS011;1295;51.130;6.732;2022-12-05T08:37:51;108.77;;;63.87;;
2570;SDS011;1295;51.130;6.732;2022-12-05T08:40:17;107.63;;;78.37;;
2570;SDS011;1295;51.130;6.732;2022-12-05T08:42:43;133.57;;;103.10;;
2570;SDS011;1295;51.130;6.732;2022-12-05T08:45:09;114.23;;;89.57;;
2570;SDS011;1295;51.130;6.732;2022-12-05T08:47:35;116.10;;;85.10;;
2570;SDS011;1295;51.130;6.732;2022-12-05T08:50:00;96.80;;;45.60;;
2570;SDS011;1295;51.130;6.732;2022-12-05T08:52:26;94.83;;;30.43;;
2570;SDS011;1295;51.130;6.732;2022-12-05T08:54:52;96.00;;;31.93;;
2570;SDS011;1295;51.130;6.732;2022-12-05T08:57:25;178.60;;;163.70;;
2570;SDS011;1295;51.130;6.732;2022-12-05T08:59:50;98.00;;;40.97;;
2570;SDS011;1295;51.130;6.732;2022-12-05T09:02:16;103.23;;;51.77;;
2570;SDS011;1295;51.130;6.732;2022-12-05T09:04:42;129.17;;;106.70;;
2570;SDS011;1295;51.130;6.732;2022-12-05T09:07:08;124.10;;;100.67;;
2570;SDS011;1295;51.130;6.732;2022-12-05T09:09:34;127.67;;;100.83;;
2570;SDS011;1295;51.130;6.732;2022-12-05T09:12:00;144.73;;;127.57;;
2570;SDS011;1295;51.130;6.732;2022-12-05T09:14:25;136.47;;;120.73;;
2570;SDS011;1295;51.130;6.732;2022-12-05T09:16:51;117.70;;;87.03;;
2570;SDS011;1295;51.130;6.732;2022-12-05T09:19:17;121.70;;;93.90;;
2570;SDS011;1295;51.130;6.732;2022-12-05T09:21:42;126.57;;;103.60;;
2570;SDS011;1295;51.130;6.732;2022-12-05T09:24:09;132.03;;;111.37;;
2570;SDS011;1295;51.130;6.732;2022-12-05T09:26:34;149.73;;;134.40;;
2570;SDS011;1295;51.130;6.732;2022-12-05T09:29:00;173.53;;;157.97;;
2570;SDS011;1295;51.130;6.732;2022-12-05T09:31:25;122.67;;;106.47;;
2570;SDS011;1295;51.130;6.732;2022-12-05T09:33:51;141.10;;;126.93;;
2570;SDS011;1295;51.130;6.732;2022-12-05T09:36:18;121.07;;;89.70;;
2570;SDS011;1295;51.130;6.732;2022-12-05T09:38:43;192.60;;;176.03;;
2570;SDS011;1295;51.130;6.732;2022-12-05T09:41:14;191.30;;;174.67;;
2570;SDS011;1295;51.130;6.732;2022-12-05T09:43:57;123.33;;;101.90;;
2570;SDS011;1295;51.130;6.732;2022-12-05T09:46:24;125.30;;;102.30;;
2570;SDS011;1295;51.130;6.732;2022-12-05T09:48:49;122.93;;;100.63;;
2570;SDS011;1295;51.130;6.732;2022-12-05T09:51:15;111.70;;;81.77;;
2570;SDS011;1295;51.130;6.732;2022-12-05T09:53:41;123.00;;;100.47;;
2570;SDS011;1295;51.130;6.732;2022-12-05T09:56:12;127.50;;;113.60;;
2570;SDS011;1295;51.130;6.732;2022-12-05T10:01:25;119.87;;;104.77;;
2570;SDS011;1295;51.130;6.732;2022-12-05T10:06:33;120.63;;;100.73;;
2570;SDS011;1295;51.130;6.732;2022-12-05T10:09:05;131.50;;;115.70;;
2570;SDS011;1295;51.130;6.732;2022-12-05T10:11:34;106.80;;;88.03;;
2570;SDS011;1295;51.130;6.732;2022-12-05T10:14:07;132.03;;;100.97;;
2570;SDS011;1295;51.130;6.732;2022-12-05T10:16:37;121.40;;;102.63;;
2570;SDS011;1295;51.130;6.732;2022-12-05T10:19:10;106.97;;;76.30;;
2570;SDS011;1295;51.130;6.732;2022-12-05T10:21:38;110.47;;;74.80;;
2570;SDS011;1295;51.130;6.732;2022-12-05T10:24:05;111.63;;;93.03;;
2570;SDS011;1295;51.130;6.732;2022-12-05T10:26:32;112.60;;;92.90;;
2570;SDS011;1295;51.130;6.732;2022-12-05T10:28:59;103.47;;;60.27;;
2570;SDS011;1295;51.130;6.732;2022-12-05T10:31:24;111.77;;;78.53;;
2570;SDS011;1295;51.130;6.732;2022-12-05T10:33:52;119.60;;;94.20;;
2570;SDS011;1295;51.130;6.732;2022-12-05T10:36:15;108.27;;;80.63;;
2570;SDS011;1295;51.130;6.732;2022-12-05T10:38:42;124.87;;;109.47;;
2570;SDS011;1295;51.130;6.732;2022-12-05T10:41:07;145.57;;;130.97;;
2570;SDS011;1295;51.130;6.732;2022-12-05T10:43:32;145.97;;;131.83;;
2570;SDS011;1295;51.130;6.732;2022-12-05T10:45:58;161.00;;;146.77;;
2570;SDS011;1295;51.130;6.732;2022-12-05T10:48:23;198.77;;;182.50;;
2570;SDS011;1295;51.130;6.732;2022-12-05T10:50:51;161.63;;;146.73;;
2570;SDS011;1295;51.130;6.732;2022-12-05T10:53:18;228.93;;;211.93;;
2570;SDS011;1295;51.130;6.732;2022-12-05T10:55:43;222.73;;;205.17;;
2570;SDS011;1295;51.130;6.732;2022-12-05T10:58:10;175.50;;;159.83;;
2570;SDS011;1295;51.130;6.732;2022-12-05T11:00:35;192.37;;;176.63;;
2570;SDS011;1295;51.130;6.732;2022-12-05T11:03:02;189.17;;;172.90;;
2570;SDS011;1295;51.130;6.732;2022-12-05T11:05:29;168.80;;;153.87;;
2570;SDS011;1295;51.130;6.732;2022-12-05T11:07:54;139.90;;;126.00;;
2570;SDS011;1295;51.130;6.732;2022-12-05T11:10:23;120.13;;;102.23;;
2570;SDS011;1295;51.130;6.732;2022-12-05T11:12:46;111.77;;;82.60;;
2570;SDS011;1295;51.130;6.732;2022-12-05T11:17:48;129.03;;;109.87;;
2570;SDS011;1295;51.130;6.732;2022-12-05T11:20:33;122.43;;;97.67;;
2570;SDS011;1295;51.130;6.732;2022-12-05T11:22:57;137.67;;;123.60;;
2570;SDS011;1295;51.130;6.732;2022-12-05T11:30:56;114.03;;;71.27;;
2570;SDS011;1295;51.130;6.732;2022-12-05T11:33:22;97.67;;;55.67;;
2570;SDS011;1295;51.130;6.732;2022-12-05T11:35:48;105.40;;;62.63;;
2570;SDS011;1295;51.130;6.732;2022-12-05T11:38:18;127.67;;;107.20;;
2570;SDS011;1295;51.130;6.732;2022-12-05T11:43:49;145.63;;;130.80;;
2570;SDS011;1295;51.130;6.732;2022-12-05T11:46:35;130.87;;;111.53;;
2570;SDS011;1295;51.130;6.732;2022-12-05T11:49:13;123.30;;;103.53;;
2570;SDS011;1295;51.130;6.732;2022-12-05T11:51:43;120.77;;;100.47;;
2570;SDS011;1295;51.130;6.732;2022-12-05T11:54:22;123.03;;;100.97;;
2570;SDS011;1295;51.130;6.732;2022-12-05T11:56:49;106.43;;;81.13;;
2570;SDS011;1295;51.130;6.732;2022-12-05T12:01:55;134.70;;;119.87;;
2570;SDS011;1295;51.130;6.732;2022-12-05T12:04:51;110.50;;;68.07;;
2570;SDS011;1295;51.130;6.732;2022-12-05T12:07:09;166.43;;;150.90;;
2570;SDS011;1295;51.130;6.732;2022-12-05T12:12:23;188.27;;;172.27;;
2570;SDS011;1295;51.130;6.732;2022-12-05T12:14:52;175.53;;;159.43;;
2570;SDS011;1295;51.130;6.732;2022-12-05T12:20:09;216.93;;;199.73;;
2570;SDS011;1295;51.130;6.732;2022-12-05T12:22:47;119.27;;;89.40;;
2570;SDS011;1295;51.130;6.732;2022-12-05T12:25:19;129.90;;;111.73;;
2570;SDS011;1295;51.130;6.732;2022-12-05T12:27:51;196.67;;;180.27;;
2570;SDS011;1295;51.130;6.732;2022-12-05T12:30:43;134.67;;;119.30;;
2570;SDS011;1295;51.130;6.732;2022-12-05T12:33:28;200.57;;;183.87;;
2570;SDS011;1295;51.130;6.732;2022-12-05T12:35:55;129.40;;;113.80;;
2570;SDS011;1295;51.130;6.732;2022-12-05T12:38:29;161.17;;;146.20;;
2570;SDS011;1295;51.130;6.732;2022-12-05T12:41:10;185.73;;;169.00;;
2570;SDS011;1295;51.130;6.732;2022-12-05T12:46:19;264.83;;;246.33;;
2570;SDS011;1295;51.130;6.732;2022-12-05T12:49:07;194.03;;;177.23;;
2570;SDS011;1295;51.130;6.732;2022-12-05T12:51:30;111.50;;;94.40;;
2570;SDS011;1295;51.130;6.732;2022-12-05T12:54:00;240.13;;;223.30;;
2570;SDS011;1295;51.130;6.732;2022-12-05T12:56:27;234.07;;;215.93;;
2570;SDS011;1295;51.130;6.732;2022-12-05T13:00:03;189.73;;;173.77;;
2570;SDS011;1295;51.130;6.732;2022-12-05T13:01:49;152.53;;;138.33;;
2570;SDS011;1295;51.130;6.732;2022-12-05T13:04:33;184.53;;;169.53;;
2570;SDS011;1295;51.130;6.732;2022-12-05T13:07:02;108.40;;;92.80;;
2570;SDS011;1295;51.130;6.732;2022-12-05T13:09:28;203.23;;;187.00;;
2570;SDS011;1295;51.130;6.732;2022-12-05T13:11:53;199.70;;;184.00;;
2570;SDS011;1295;51.130;6.732;2022-12-05T13:14:19;172.87;;;157.07;;
2570;SDS011;1295;51.130;6.732;2022-12-05T13:16:46;141.70;;;128.60;;
2570;SDS011;1295;51.130;6.732;2022-12-05T13:19:17;230.53;;;214.03;;
2570;SDS011;1295;51.130;6.732;2022-12-05T13:21:38;126.00;;;113.30;;
2570;SDS011;1295;51.130;6.732;2022-12-05T13:24:04;145.83;;;132.10;;
2570;SDS011;1295;51.130;6.732;2022-12-05T13:26:31;252.00;;;235.07;;
2570;SDS011;1295;51.130;6.732;2022-12-05T13:28:58;206.70;;;190.17;;
2570;SDS011;1295;51.130;6.732;2022-12-05T13:34:00;373.33;;;351.40;;
2570;SDS011;1295;51.130;6.732;2022-12-05T13:36:26;300.90;;;282.10;;
2570;SDS011;1295;51.130;6.732;2022-12-05T13:39:00;146.47;;;133.07;;
2570;SDS011;1295;51.130;6.732;2022-12-05T13:44:10;274.00;;;255.97;;
2570;SDS011;1295;51.130;6.732;2022-12-05T13:46:38;116.87;;;104.63;;
2570;SDS011;1295;51.130;6.732;2022-12-05T13:49:04;270.23;;;251.83;;
2570;SDS011;1295;51.130;6.732;2022-12-05T13:51:31;158.03;;;144.50;;
2570;SDS011;1295;51.130;6.732;2022-12-05T13:54:09;123.83;;;111.30;;
2570;SDS011;1295;51.130;6.732;2022-12-05T14:02:23;232.97;;;217.40;;
2570;SDS011;1295;51.130;6.732;2022-12-05T14:07:07;230.53;;;214.63;;
2570;SDS011;1295;51.130;6.732;2022-12-05T14:09:47;204.80;;;189.20;;
2570;SDS011;1295;51.130;6.732;2022-12-05T14:14:58;97.33;;;74.70;;
2570;SDS011;1295;51.130;6.732;2022-12-05T14:17:23;231.80;;;215.40;;
2570;SDS011;1295;51.130;6.732;2022-12-05T14:19:51;211.63;;;194.67;;
2570;SDS011;1295;51.130;6.732;2022-12-05T14:22:28;179.07;;;162.77;;
2570;SDS011;1295;51.130;6.732;2022-12-05T14:24:54;212.77;;;196.33;;
2570;SDS011;1295;51.130;6.732;2022-12-05T14:30:24;230.93;;;214.10;;
2570;SDS011;1295;51.130;6.732;2022-12-05T14:32:49;274.37;;;255.20;;
2570;SDS011;1295;51.130;6.732;2022-12-05T14:35:15;255.73;;;238.13;;
2570;SDS011;1295;51.130;6.732;2022-12-05T14:37:40;239.77;;;223.00;;
2570;SDS011;1295;51.130;6.732;2022-12-05T14:43:17;252.37;;;234.70;;
2570;SDS011;1295;51.130;6.732;2022-12-05T14:45:54;274.07;;;255.27;;
2570;SDS011;1295;51.130;6.732;2022-12-05T14:48:26;259.33;;;240.50;;
2570;SDS011;1295;51.130;6.732;2022-12-05T14:51:01;232.53;;;214.70;;
2570;SDS011;1295;51.130;6.732;2022-12-05T14:53:31;245.87;;;227.37;;
2570;SDS011;1295;51.130;6.732;2022-12-05T14:56:04;264.53;;;245.57;;
2570;SDS011;1295;51.130;6.732;2022-12-05T14:58:34;244.97;;;227.00;;
2570;SDS011;1295;51.130;6.732;2022-12-05T15:01:14;183.73;;;168.03;;
2570;SDS011;1295;51.130;6.732;2022-12-05T15:06:20;179.67;;;165.17;;
2570;SDS011;1295;51.130;6.732;2022-12-05T15:08:48;220.90;;;204.77;;
2570;SDS011;1295;51.130;6.732;2022-12-05T15:11:14;212.20;;;196.10;;
2570;SDS011;1295;51.130;6.732;2022-12-05T15:13:40;235.07;;;218.47;;
2570;SDS011;1295;51.130;6.732;2022-12-05T15:16:11;257.27;;;239.60;;
2570;SDS011;1295;51.130;6.732;2022-12-05T15:18:37;245.10;;;227.60;;
2570;SDS011;1295;51.130;6.732;2022-12-05T15:21:06;266.57;;;248.50;;
2570;SDS011;1295;51.130;6.732;2022-12-05T15:23:40;205.30;;;189.27;;
2570;SDS011;1295;51.130;6.732;2022-12-05T15:28:58;253.57;;;235.40;;
2570;SDS011;1295;51.130;6.732;2022-12-05T15:31:43;193.83;;;178.43;;
2570;SDS011;1295;51.130;6.732;2022-12-05T15:34:21;174.27;;;159.57;;
2570;SDS011;1295;51.130;6.732;2022-12-05T15:36:48;202.97;;;187.00;;